sensor_id;sensor_type;location;lat;lon;timestamp;P1;durP1;ratioP1;P2;durP2;ratioP2
6997;SDS011;3539;47.982;12.238;2022-12-22T00:01:46;21.17;;;14.00;;
6997;SDS011;3539;47.982;12.238;2022-12-22T00:04:30;21.53;;;14.27;;
6997;SDS011;3539;47.982;12.238;2022-12-22T00:07:15;22.07;;;14.07;;
6997;SDS011;3539;47.982;12.238;2022-12-22T00:10:00;21.90;;;14.10;;
6997;SDS011;3539;47.982;12.238;2022-12-22T00:12:44;18.17;;;13.17;;
6997;SDS011;3539;47.982;12.238;2022-12-22T00:15:30;22.40;;;14.07;;
6997;SDS011;3539;47.982;12.238;2022-12-22T00:18:16;21.70;;;13.90;;
6997;SDS011;3539;47.982;12.238;2022-12-22T00:21:00;34.03;;;14.93;;
6997;SDS011;3539;47.982;12.238;2022-12-22T00:23:44;31.40;;;13.57;;
6997;SDS011;3539;47.982;12.238;2022-12-22T00:26:28;24.60;;;13.47;;
6997;SDS011;3539;47.982;12.238;2022-12-22T00:29:14;23.50;;;13.70;;
6997;SDS011;3539;47.982;12.238;2022-12-22T00:32:00;26.60;;;14.07;;
6997;SDS011;3539;47.982;12.238;2022-12-22T00:34:44;28.10;;;15.47;;
6997;SDS011;3539;47.982;12.238;2022-12-22T00:37:32;24.20;;;15.00;;
6997;SDS011;3539;47.982;12.238;2022-12-22T00:40:18;21.33;;;14.03;;
6997;SDS011;3539;47.982;12.238;2022-12-22T00:43:03;22.63;;;13.87;;
6997;SDS011;3539;47.982;12.238;2022-12-22T00:45:47;22.23;;;14.70;;
6997;SDS011;3539;47.982;12.238;2022-12-22T00:48:34;22.63;;;16.27;;
6997;SDS011;3539;47.982;12.238;2022-12-22T00:51:18;36.37;;;15.67;;
6997;SDS011;3539;47.982;12.238;2022-12-22T00:54:03;21.47;;;12.77;;
6997;SDS011;3539;47.982;12.238;2022-12-22T00:56:51;17.93;;;12.10;;
6997;SDS011;3539;47.982;12.238;2022-12-22T00:59:36;26.57;;;16.07;;
6997;SDS011;3539;47.982;12.238;2022-12-22T01:02:20;28.77;;;16.33;;
6997;SDS011;3539;47.982;12.238;2022-12-22T01:05:07;42.13;;;16.60;;
6997;SDS011;3539;47.982;12.238;2022-12-22T01:07:52;38.07;;;16.27;;
6997;SDS011;3539;47.982;12.238;2022-12-22T01:10:37;21.77;;;14.03;;
6997;SDS011;3539;47.982;12.238;2022-12-22T01:13:22;25.03;;;14.60;;
6997;SDS011;3539;47.982;12.238;2022-12-22T01:16:08;25.77;;;14.63;;
6997;SDS011;3539;47.982;12.238;2022-12-22T01:18:53;22.77;;;13.63;;
6997;SDS011;3539;47.982;12.238;2022-12-22T01:21:39;19.13;;;13.00;;
6997;SDS011;3539;47.982;12.238;2022-12-22T01:24:24;19.47;;;13.00;;
6997;SDS011;3539;47.982;12.238;2022-12-22T01:27:09;28.87;;;13.57;;
6997;SDS011;3539;47.982;12.238;2022-12-22T01:29:54;34.10;;;14.50;;
6997;SDS011;3539;47.982;12.238;2022-12-22T01:32:38;24.63;;;13.33;;
6997;SDS011;3539;47.982;12.238;2022-12-22T01:35:24;19.83;;;13.40;;
6997;SDS011;3539;47.982;12.238;2022-12-22T01:38:12;19.37;;;12.97;;
6997;SDS011;3539;47.982;12.238;2022-12-22T01:40:57;23.07;;;13.80;;
6997;SDS011;3539;47.982;12.238;2022-12-22T01:43:42;24.67;;;13.93;;
6997;SDS011;3539;47.982;12.238;2022-12-22T01:46:27;27.17;;;15.30;;
6997;SDS011;3539;47.982;12.238;2022-12-22T01:49:13;25.80;;;14.40;;
6997;SDS011;3539;47.982;12.238;2022-12-22T01:51:59;23.37;;;14.80;;
6997;SDS011;3539;47.982;12.238;2022-12-22T01:54:48;25.17;;;16.20;;
6997;SDS011;3539;47.982;12.238;2022-12-22T01:57:34;21.57;;;15.50;;
6997;SDS011;3539;47.982;12.238;2022-12-22T02:00:19;21.70;;;14.80;;
6997;SDS011;3539;47.982;12.238;2022-12-22T02:03:12;21.13;;;14.67;;
6997;SDS011;3539;47.982;12.238;2022-12-22T02:06:01;21.33;;;14.83;;
6997;SDS011;3539;47.982;12.238;2022-12-22T02:08:57;17.80;;;14.07;;
6997;SDS011;3539;47.982;12.238;2022-12-22T02:11:55;19.97;;;13.10;;
6997;SDS011;3539;47.982;12.238;2022-12-22T02:14:46;18.60;;;13.87;;
6997;SDS011;3539;47.982;12.238;2022-12-22T02:17:36;19.23;;;12.87;;
6997;SDS011;3539;47.982;12.238;2022-12-22T02:20:35;21.17;;;13.07;;
6997;SDS011;3539;47.982;12.238;2022-12-22T02:23:38;18.50;;;13.57;;
6997;SDS011;3539;47.982;12.238;2022-12-22T02:26:29;18.63;;;13.60;;
6997;SDS011;3539;47.982;12.238;2022-12-22T02:29:18;23.30;;;13.53;;
6997;SDS011;3539;47.982;12.238;2022-12-22T02:32:03;19.53;;;13.20;;
6997;SDS011;3539;47.982;12.238;2022-12-22T02:34:49;22.67;;;13.83;;
6997;SDS011;3539;47.982;12.238;2022-12-22T02:37:36;20.37;;;12.43;;
6997;SDS011;3539;47.982;12.238;2022-12-22T02:40:25;19.30;;;12.43;;
6997;SDS011;3539;47.982;12.238;2022-12-22T02:43:16;17.77;;;12.23;;
6997;SDS011;3539;47.982;12.238;2022-12-22T02:46:18;18.93;;;12.23;;
6997;SDS011;3539;47.982;12.238;2022-12-22T02:49:05;16.37;;;12.10;;
6997;SDS011;3539;47.982;12.238;2022-12-22T02:51:55;17.60;;;12.57;;
6997;SDS011;3539;47.982;12.238;2022-12-22T02:54:41;18.03;;;13.07;;
6997;SDS011;3539;47.982;12.238;2022-12-22T02:57:25;17.13;;;13.00;;
6997;SDS011;3539;47.982;12.238;2022-12-22T03:00:11;21.50;;;13.83;;
6997;SDS011;3539;47.982;12.238;2022-12-22T03:02:56;19.80;;;13.97;;
6997;SDS011;3539;47.982;12.238;2022-12-22T03:05:40;22.03;;;14.67;;
6997;SDS011;3539;47.982;12.238;2022-12-22T03:08:24;22.03;;;14.97;;
6997;SDS011;3539;47.982;12.238;2022-12-22T03:11:08;20.03;;;14.53;;
6997;SDS011;3539;47.982;12.238;2022-12-22T03:13:53;17.90;;;13.70;;
6997;SDS011;3539;47.982;12.238;2022-12-22T03:16:39;20.30;;;13.77;;
6997;SDS011;3539;47.982;12.238;2022-12-22T03:19:23;18.53;;;12.90;;
6997;SDS011;3539;47.982;12.238;2022-12-22T03:22:07;19.97;;;13.77;;
6997;SDS011;3539;47.982;12.238;2022-12-22T03:24:51;19.80;;;13.83;;
6997;SDS011;3539;47.982;12.238;2022-12-22T03:27:35;17.87;;;12.40;;
6997;SDS011;3539;47.982;12.238;2022-12-22T03:30:02;17.73;;;11.70;;
6997;SDS011;3539;47.982;12.238;2022-12-22T03:32:31;15.40;;;11.60;;
6997;SDS011;3539;47.982;12.238;2022-12-22T03:34:57;14.33;;;10.33;;
6997;SDS011;3539;47.982;12.238;2022-12-22T03:37:24;15.47;;;11.03;;
6997;SDS011;3539;47.982;12.238;2022-12-22T03:40:00;15.90;;;11.67;;
6997;SDS011;3539;47.982;12.238;2022-12-22T03:42:51;15.27;;;11.27;;
6997;SDS011;3539;47.982;12.238;2022-12-22T03:45:37;15.23;;;11.03;;
6997;SDS011;3539;47.982;12.238;2022-12-22T03:48:23;16.37;;;12.33;;
6997;SDS011;3539;47.982;12.238;2022-12-22T03:50:49;14.43;;;11.43;;
6997;SDS011;3539;47.982;12.238;2022-12-22T03:53:16;17.13;;;12.70;;
6997;SDS011;3539;47.982;12.238;2022-12-22T03:55:43;15.93;;;12.90;;
6997;SDS011;3539;47.982;12.238;2022-12-22T03:58:10;17.87;;;12.23;;
6997;SDS011;3539;47.982;12.238;2022-12-22T04:00:36;18.77;;;12.87;;
6997;SDS011;3539;47.982;12.238;2022-12-22T04:03:03;16.60;;;12.20;;
6997;SDS011;3539;47.982;12.238;2022-12-22T04:05:36;16.37;;;12.27;;
6997;SDS011;3539;47.982;12.238;2022-12-22T04:08:03;16.03;;;12.00;;
6997;SDS011;3539;47.982;12.238;2022-12-22T04:10:30;15.53;;;11.93;;
6997;SDS011;3539;47.982;12.238;2022-12-22T04:13:14;17.30;;;12.47;;
6997;SDS011;3539;47.982;12.238;2022-12-22T04:15:41;19.43;;;12.73;;
6997;SDS011;3539;47.982;12.238;2022-12-22T04:18:07;19.27;;;14.13;;
6997;SDS011;3539;47.982;12.238;2022-12-22T04:20:37;23.33;;;15.37;;
6997;SDS011;3539;47.982;12.238;2022-12-22T04:23:04;17.10;;;13.43;;
6997;SDS011;3539;47.982;12.238;2022-12-22T04:25:31;18.17;;;13.57;;
6997;SDS011;3539;47.982;12.238;2022-12-22T04:27:58;18.97;;;13.93;;
6997;SDS011;3539;47.982;12.238;2022-12-22T04:30:24;21.43;;;15.03;;
6997;SDS011;3539;47.982;12.238;2022-12-22T04:32:51;20.27;;;14.43;;
6997;SDS011;3539;47.982;12.238;2022-12-22T04:35:18;19.60;;;13.80;;
6997;SDS011;3539;47.982;12.238;2022-12-22T04:37:46;22.47;;;15.13;;
6997;SDS011;3539;47.982;12.238;2022-12-22T04:40:13;25.13;;;17.97;;
6997;SDS011;3539;47.982;12.238;2022-12-22T04:42:40;23.73;;;17.03;;
6997;SDS011;3539;47.982;12.238;2022-12-22T04:45:07;18.23;;;12.97;;
6997;SDS011;3539;47.982;12.238;2022-12-22T04:47:34;16.10;;;12.63;;
6997;SDS011;3539;47.982;12.238;2022-12-22T04:50:01;16.90;;;12.63;;
6997;SDS011;3539;47.982;12.238;2022-12-22T04:52:29;16.27;;;12.57;;
6997;SDS011;3539;47.982;12.238;2022-12-22T04:54:58;16.97;;;13.00;;
6997;SDS011;3539;47.982;12.238;2022-12-22T04:57:24;19.00;;;13.23;;
6997;SDS011;3539;47.982;12.238;2022-12-22T04:59:51;17.80;;;12.73;;
6997;SDS011;3539;47.982;12.238;2022-12-22T05:02:19;14.73;;;12.00;;
6997;SDS011;3539;47.982;12.238;2022-12-22T05:04:46;14.77;;;11.30;;
6997;SDS011;3539;47.982;12.238;2022-12-22T05:07:13;13.53;;;10.60;;
6997;SDS011;3539;47.982;12.238;2022-12-22T05:09:40;13.60;;;10.77;;
6997;SDS011;3539;47.982;12.238;2022-12-22T05:12:08;15.80;;;10.67;;
6997;SDS011;3539;47.982;12.238;2022-12-22T05:14:48;14.43;;;11.13;;
6997;SDS011;3539;47.982;12.238;2022-12-22T05:17:15;14.43;;;10.93;;
6997;SDS011;3539;47.982;12.238;2022-12-22T05:19:42;13.80;;;10.50;;
6997;SDS011;3539;47.982;12.238;2022-12-22T05:22:08;13.70;;;10.07;;
6997;SDS011;3539;47.982;12.238;2022-12-22T05:24:35;14.90;;;9.63;;
6997;SDS011;3539;47.982;12.238;2022-12-22T05:27:02;14.83;;;10.80;;
6997;SDS011;3539;47.982;12.238;2022-12-22T05:29:30;15.53;;;12.93;;
6997;SDS011;3539;47.982;12.238;2022-12-22T05:31:57;13.30;;;11.20;;
6997;SDS011;3539;47.982;12.238;2022-12-22T05:34:23;26.47;;;18.97;;
6997;SDS011;3539;47.982;12.238;2022-12-22T05:36:50;19.13;;;14.33;;
6997;SDS011;3539;47.982;12.238;2022-12-22T05:39:17;32.03;;;20.63;;
6997;SDS011;3539;47.982;12.238;2022-12-22T05:41:44;24.30;;;17.03;;
6997;SDS011;3539;47.982;12.238;2022-12-22T05:44:10;22.70;;;14.83;;
6997;SDS011;3539;47.982;12.238;2022-12-22T05:46:38;19.47;;;14.03;;
6997;SDS011;3539;47.982;12.238;2022-12-22T05:49:05;18.53;;;13.90;;
6997;SDS011;3539;47.982;12.238;2022-12-22T05:51:32;18.47;;;13.13;;
6997;SDS011;3539;47.982;12.238;2022-12-22T05:53:59;15.37;;;11.30;;
6997;SDS011;3539;47.982;12.238;2022-12-22T05:56:25;17.23;;;10.80;;
6997;SDS011;3539;47.982;12.238;2022-12-22T05:58:52;14.23;;;10.83;;
6997;SDS011;3539;47.982;12.238;2022-12-22T06:01:19;13.83;;;10.80;;
6997;SDS011;3539;47.982;12.238;2022-12-22T06:03:47;12.30;;;10.33;;
6997;SDS011;3539;47.982;12.238;2022-12-22T06:06:13;16.77;;;9.97;;
6997;SDS011;3539;47.982;12.238;2022-12-22T06:08:40;15.23;;;10.80;;
6997;SDS011;3539;47.982;12.238;2022-12-22T06:11:10;14.20;;;10.80;;
6997;SDS011;3539;47.982;12.238;2022-12-22T06:13:37;15.03;;;12.17;;
6997;SDS011;3539;47.982;12.238;2022-12-22T06:16:05;15.73;;;11.77;;
6997;SDS011;3539;47.982;12.238;2022-12-22T06:18:32;15.33;;;11.77;;
6997;SDS011;3539;47.982;12.238;2022-12-22T06:21:00;15.47;;;11.23;;
6997;SDS011;3539;47.982;12.238;2022-12-22T06:23:30;17.13;;;11.50;;
6997;SDS011;3539;47.982;12.238;2022-12-22T06:25:57;15.60;;;11.10;;
6997;SDS011;3539;47.982;12.238;2022-12-22T06:28:25;15.47;;;10.47;;
6997;SDS011;3539;47.982;12.238;2022-12-22T06:30:53;31.80;;;19.03;;
6997;SDS011;3539;47.982;12.238;2022-12-22T06:33:21;26.43;;;15.13;;
6997;SDS011;3539;47.982;12.238;2022-12-22T06:35:48;14.50;;;10.10;;
6997;SDS011;3539;47.982;12.238;2022-12-22T06:38:16;30.63;;;17.33;;
6997;SDS011;3539;47.982;12.238;2022-12-22T06:40:45;20.70;;;12.77;;
6997;SDS011;3539;47.982;12.238;2022-12-22T06:43:15;16.17;;;10.23;;
6997;SDS011;3539;47.982;12.238;2022-12-22T06:45:45;15.73;;;9.83;;
6997;SDS011;3539;47.982;12.238;2022-12-22T06:48:12;13.30;;;9.57;;
6997;SDS011;3539;47.982;12.238;2022-12-22T06:50:39;16.70;;;10.43;;
6997;SDS011;3539;47.982;12.238;2022-12-22T06:53:07;14.73;;;10.27;;
6997;SDS011;3539;47.982;12.238;2022-12-22T06:55:35;14.40;;;10.83;;
6997;SDS011;3539;47.982;12.238;2022-12-22T06:58:03;16.93;;;10.63;;
6997;SDS011;3539;47.982;12.238;2022-12-22T07:00:33;15.37;;;11.33;;
6997;SDS011;3539;47.982;12.238;2022-12-22T07:03:09;15.13;;;10.93;;
6997;SDS011;3539;47.982;12.238;2022-12-22T07:05:36;13.67;;;10.50;;
6997;SDS011;3539;47.982;12.238;2022-12-22T07:08:03;11.07;;;8.23;;
6997;SDS011;3539;47.982;12.238;2022-12-22T07:10:33;11.57;;;7.60;;
6997;SDS011;3539;47.982;12.238;2022-12-22T07:13:18;16.90;;;10.40;;
6997;SDS011;3539;47.982;12.238;2022-12-22T07:15:45;10.07;;;8.07;;
6997;SDS011;3539;47.982;12.238;2022-12-22T07:18:21;12.70;;;9.70;;
6997;SDS011;3539;47.982;12.238;2022-12-22T07:20:51;13.27;;;9.10;;
6997;SDS011;3539;47.982;12.238;2022-12-22T07:23:21;11.47;;;8.93;;
6997;SDS011;3539;47.982;12.238;2022-12-22T07:25:48;13.07;;;9.13;;
6997;SDS011;3539;47.982;12.238;2022-12-22T07:28:30;10.60;;;8.60;;
6997;SDS011;3539;47.982;12.238;2022-12-22T07:31:04;9.93;;;8.20;;
6997;SDS011;3539;47.982;12.238;2022-12-22T07:33:31;16.47;;;12.37;;
6997;SDS011;3539;47.982;12.238;2022-12-22T07:36:06;14.93;;;10.60;;
6997;SDS011;3539;47.982;12.238;2022-12-22T07:38:36;11.83;;;8.27;;
6997;SDS011;3539;47.982;12.238;2022-12-22T07:41:10;9.53;;;7.27;;
6997;SDS011;3539;47.982;12.238;2022-12-22T07:43:58;15.43;;;10.57;;
6997;SDS011;3539;47.982;12.238;2022-12-22T07:46:31;11.03;;;7.40;;
6997;SDS011;3539;47.982;12.238;2022-12-22T07:49:03;16.97;;;9.90;;
6997;SDS011;3539;47.982;12.238;2022-12-22T07:51:48;13.47;;;9.13;;
6997;SDS011;3539;47.982;12.238;2022-12-22T07:54:15;11.73;;;7.30;;
6997;SDS011;3539;47.982;12.238;2022-12-22T07:56:45;21.17;;;13.03;;
6997;SDS011;3539;47.982;12.238;2022-12-22T07:59:14;21.23;;;13.63;;
6997;SDS011;3539;47.982;12.238;2022-12-22T08:01:41;11.00;;;8.53;;
6997;SDS011;3539;47.982;12.238;2022-12-22T08:04:09;11.57;;;6.83;;
6997;SDS011;3539;47.982;12.238;2022-12-22T08:06:36;8.20;;;6.67;;
6997;SDS011;3539;47.982;12.238;2022-12-22T08:09:04;7.10;;;6.13;;
6997;SDS011;3539;47.982;12.238;2022-12-22T08:11:32;6.23;;;5.30;;
6997;SDS011;3539;47.982;12.238;2022-12-22T08:13:59;22.50;;;12.63;;
6997;SDS011;3539;47.982;12.238;2022-12-22T08:16:27;21.77;;;14.53;;
6997;SDS011;3539;47.982;12.238;2022-12-22T08:18:54;16.53;;;10.63;;
6997;SDS011;3539;47.982;12.238;2022-12-22T08:21:21;15.07;;;8.80;;
6997;SDS011;3539;47.982;12.238;2022-12-22T08:23:48;12.63;;;9.13;;
6997;SDS011;3539;47.982;12.238;2022-12-22T08:26:17;10.57;;;7.63;;
6997;SDS011;3539;47.982;12.238;2022-12-22T08:28:49;9.17;;;7.10;;
6997;SDS011;3539;47.982;12.238;2022-12-22T08:31:18;9.20;;;6.77;;
6997;SDS011;3539;47.982;12.238;2022-12-22T08:33:47;7.20;;;5.80;;
6997;SDS011;3539;47.982;12.238;2022-12-22T08:36:14;8.70;;;5.77;;
6997;SDS011;3539;47.982;12.238;2022-12-22T08:38:41;7.13;;;5.70;;
6997;SDS011;3539;47.982;12.238;2022-12-22T08:41:08;9.23;;;6.33;;
6997;SDS011;3539;47.982;12.238;2022-12-22T08:43:36;9.67;;;7.07;;
6997;SDS011;3539;47.982;12.238;2022-12-22T08:46:02;12.03;;;8.57;;
6997;SDS011;3539;47.982;12.238;2022-12-22T08:48:29;12.20;;;8.87;;
6997;SDS011;3539;47.982;12.238;2022-12-22T08:50:58;11.20;;;8.13;;
6997;SDS011;3539;47.982;12.238;2022-12-22T08:53:27;11.43;;;9.03;;
6997;SDS011;3539;47.982;12.238;2022-12-22T08:55:54;20.80;;;13.40;;
6997;SDS011;3539;47.982;12.238;2022-12-22T08:58:21;16.23;;;11.50;;
6997;SDS011;3539;47.982;12.238;2022-12-22T09:00:48;15.13;;;10.67;;
6997;SDS011;3539;47.982;12.238;2022-12-22T09:03:15;12.97;;;11.17;;
6997;SDS011;3539;47.982;12.238;2022-12-22T09:05:41;11.47;;;9.00;;
6997;SDS011;3539;47.982;12.238;2022-12-22T09:08:10;12.10;;;9.10;;
6997;SDS011;3539;47.982;12.238;2022-12-22T09:10:39;27.40;;;16.43;;
6997;SDS011;3539;47.982;12.238;2022-12-22T09:13:07;24.27;;;16.23;;
6997;SDS011;3539;47.982;12.238;2022-12-22T09:15:33;13.10;;;11.03;;
6997;SDS011;3539;47.982;12.238;2022-12-22T09:18:02;15.17;;;10.60;;
6997;SDS011;3539;47.982;12.238;2022-12-22T09:20:29;20.20;;;12.90;;
6997;SDS011;3539;47.982;12.238;2022-12-22T09:22:56;16.80;;;12.07;;
6997;SDS011;3539;47.982;12.238;2022-12-22T09:25:27;14.90;;;10.23;;
6997;SDS011;3539;47.982;12.238;2022-12-22T09:27:58;14.90;;;10.17;;
6997;SDS011;3539;47.982;12.238;2022-12-22T09:30:32;14.27;;;9.83;;
6997;SDS011;3539;47.982;12.238;2022-12-22T09:33:15;11.87;;;8.80;;
6997;SDS011;3539;47.982;12.238;2022-12-22T09:36:09;10.97;;;8.93;;
6997;SDS011;3539;47.982;12.238;2022-12-22T09:38:46;12.53;;;9.17;;
6997;SDS011;3539;47.982;12.238;2022-12-22T09:41:27;9.50;;;8.47;;
6997;SDS011;3539;47.982;12.238;2022-12-22T09:44:05;11.23;;;8.80;;
6997;SDS011;3539;47.982;12.238;2022-12-22T09:46:51;11.60;;;9.23;;
6997;SDS011;3539;47.982;12.238;2022-12-22T09:49:33;10.63;;;8.27;;
6997;SDS011;3539;47.982;12.238;2022-12-22T09:52:25;11.03;;;8.00;;
6997;SDS011;3539;47.982;12.238;2022-12-22T09:55:13;8.83;;;7.10;;
6997;SDS011;3539;47.982;12.238;2022-12-22T09:57:48;10.73;;;8.27;;
6997;SDS011;3539;47.982;12.238;2022-12-22T10:00:22;29.70;;;16.03;;
6997;SDS011;3539;47.982;12.238;2022-12-22T10:02:59;14.53;;;9.60;;
6997;SDS011;3539;47.982;12.238;2022-12-22T10:05:36;12.67;;;9.10;;
6997;SDS011;3539;47.982;12.238;2022-12-22T10:08:09;12.33;;;9.30;;
6997;SDS011;3539;47.982;12.238;2022-12-22T10:10:45;11.27;;;8.00;;
6997;SDS011;3539;47.982;12.238;2022-12-22T10:13:26;9.17;;;7.03;;
6997;SDS011;3539;47.982;12.238;2022-12-22T10:15:56;9.47;;;7.17;;
6997;SDS011;3539;47.982;12.238;2022-12-22T10:18:31;12.13;;;8.23;;
6997;SDS011;3539;47.982;12.238;2022-12-22T10:21:06;11.53;;;9.00;;
6997;SDS011;3539;47.982;12.238;2022-12-22T10:23:46;10.93;;;7.37;;
6997;SDS011;3539;47.982;12.238;2022-12-22T10:26:15;9.60;;;7.23;;
6997;SDS011;3539;47.982;12.238;2022-12-22T10:28:52;10.40;;;7.50;;
6997;SDS011;3539;47.982;12.238;2022-12-22T10:31:24;10.13;;;8.03;;
6997;SDS011;3539;47.982;12.238;2022-12-22T10:34:09;11.67;;;7.43;;
6997;SDS011;3539;47.982;12.238;2022-12-22T10:36:38;9.73;;;7.63;;
6997;SDS011;3539;47.982;12.238;2022-12-22T10:39:08;8.90;;;7.07;;
6997;SDS011;3539;47.982;12.238;2022-12-22T10:41:45;8.77;;;6.67;;
6997;SDS011;3539;47.982;12.238;2022-12-22T10:44:20;8.33;;;6.40;;
6997;SDS011;3539;47.982;12.238;2022-12-22T10:46:53;8.17;;;5.80;;
6997;SDS011;3539;47.982;12.238;2022-12-22T10:49:40;8.57;;;5.93;;
6997;SDS011;3539;47.982;12.238;2022-12-22T10:52:15;8.13;;;5.47;;
6997;SDS011;3539;47.982;12.238;2022-12-22T10:54:49;10.17;;;6.00;;
6997;SDS011;3539;47.982;12.238;2022-12-22T10:57:28;9.47;;;7.23;;
6997;SDS011;3539;47.982;12.238;2022-12-22T11:00:20;10.13;;;7.20;;
6997;SDS011;3539;47.982;12.238;2022-12-22T11:02:51;15.37;;;8.00;;
6997;SDS011;3539;47.982;12.238;2022-12-22T11:05:22;10.00;;;7.50;;
6997;SDS011;3539;47.982;12.238;2022-12-22T11:07:49;11.73;;;7.97;;
6997;SDS011;3539;47.982;12.238;2022-12-22T11:18:05;8.63;;;6.17;;
6997;SDS011;3539;47.982;12.238;2022-12-22T11:20:45;6.33;;;5.33;;
6997;SDS011;3539;47.982;12.238;2022-12-22T11:26:08;9.10;;;5.80;;
6997;SDS011;3539;47.982;12.238;2022-12-22T11:28:47;7.33;;;6.27;;
6997;SDS011;3539;47.982;12.238;2022-12-22T11:31:32;8.67;;;6.27;;
6997;SDS011;3539;47.982;12.238;2022-12-22T11:34:13;8.77;;;6.73;;
6997;SDS011;3539;47.982;12.238;2022-12-22T11:36:50;13.17;;;8.73;;
6997;SDS011;3539;47.982;12.238;2022-12-22T11:39:28;11.20;;;7.47;;
6997;SDS011;3539;47.982;12.238;2022-12-22T11:42:04;9.93;;;5.97;;
6997;SDS011;3539;47.982;12.238;2022-12-22T11:44:54;6.57;;;5.43;;
6997;SDS011;3539;47.982;12.238;2022-12-22T11:47:34;7.23;;;5.60;;
6997;SDS011;3539;47.982;12.238;2022-12-22T11:50:30;10.23;;;8.10;;
6997;SDS011;3539;47.982;12.238;2022-12-22T11:53:24;12.13;;;7.83;;
6997;SDS011;3539;47.982;12.238;2022-12-22T11:56:23;12.37;;;9.00;;
6997;SDS011;3539;47.982;12.238;2022-12-22T12:06:16;4.90;;;3.47;;
6997;SDS011;3539;47.982;12.238;2022-12-22T12:09:26;3.50;;;2.57;;
6997;SDS011;3539;47.982;12.238;2022-12-22T12:12:45;3.63;;;3.03;;
6997;SDS011;3539;47.982;12.238;2022-12-22T13:09:34;2.50;;;1.63;;
6997;SDS011;3539;47.982;12.238;2022-12-22T13:14:24;5.77;;;2.17;;
6997;SDS011;3539;47.982;12.238;2022-12-22T13:16:52;6.73;;;2.63;;
6997;SDS011;3539;47.982;12.238;2022-12-22T13:20:12;4.73;;;2.20;;
6997;SDS011;3539;47.982;12.238;2022-12-22T13:29:01;9.03;;;6.00;;
6997;SDS011;3539;47.982;12.238;2022-12-22T13:31:39;3.13;;;2.30;;
6997;SDS011;3539;47.982;12.238;2022-12-22T13:34:24;4.90;;;2.00;;
6997;SDS011;3539;47.982;12.238;2022-12-22T13:37:26;4.10;;;2.10;;
6997;SDS011;3539;47.982;12.238;2022-12-22T13:40:19;2.10;;;1.43;;
6997;SDS011;3539;47.982;12.238;2022-12-22T13:42:59;1.97;;;1.53;;
6997;SDS011;3539;47.982;12.238;2022-12-22T13:45:52;5.50;;;2.80;;
6997;SDS011;3539;47.982;12.238;2022-12-22T13:48:40;3.20;;;1.50;;
6997;SDS011;3539;47.982;12.238;2022-12-22T13:54:25;4.60;;;1.30;;
6997;SDS011;3539;47.982;12.238;2022-12-22T13:57:25;1.87;;;1.23;;
6997;SDS011;3539;47.982;12.238;2022-12-22T14:00:04;3.77;;;1.50;;
6997;SDS011;3539;47.982;12.238;2022-12-22T14:02:59;2.77;;;1.10;;
6997;SDS011;3539;47.982;12.238;2022-12-22T14:09:28;3.40;;;1.47;;
6997;SDS011;3539;47.982;12.238;2022-12-22T14:12:18;2.60;;;1.30;;
6997;SDS011;3539;47.982;12.238;2022-12-22T14:14:51;3.33;;;1.40;;
6997;SDS011;3539;47.982;12.238;2022-12-22T14:17:21;1.87;;;1.07;;
6997;SDS011;3539;47.982;12.238;2022-12-22T14:20:18;3.37;;;1.40;;
6997;SDS011;3539;47.982;12.238;2022-12-22T14:22:50;5.47;;;1.57;;
6997;SDS011;3539;47.982;12.238;2022-12-22T14:25:23;3.50;;;2.00;;
6997;SDS011;3539;47.982;12.238;2022-12-22T14:28:06;7.73;;;2.90;;
6997;SDS011;3539;47.982;12.238;2022-12-22T14:30:42;4.13;;;1.60;;
6997;SDS011;3539;47.982;12.238;2022-12-22T14:33:25;4.50;;;2.67;;
6997;SDS011;3539;47.982;12.238;2022-12-22T14:38:48;6.07;;;3.57;;
6997;SDS011;3539;47.982;12.238;2022-12-22T14:41:23;5.10;;;2.60;;
6997;SDS011;3539;47.982;12.238;2022-12-22T14:44:14;8.57;;;4.73;;
6997;SDS011;3539;47.982;12.238;2022-12-22T14:46:42;3.13;;;2.30;;
6997;SDS011;3539;47.982;12.238;2022-12-22T14:49:11;5.30;;;2.43;;
6997;SDS011;3539;47.982;12.238;2022-12-22T14:51:41;1.77;;;1.60;;
6997;SDS011;3539;47.982;12.238;2022-12-22T14:54:15;6.57;;;1.97;;
6997;SDS011;3539;47.982;12.238;2022-12-22T14:56:45;5.23;;;2.30;;
6997;SDS011;3539;47.982;12.238;2022-12-22T14:59:21;3.00;;;1.70;;
6997;SDS011;3539;47.982;12.238;2022-12-22T15:01:55;2.10;;;1.70;;
6997;SDS011;3539;47.982;12.238;2022-12-22T15:04:23;2.67;;;1.70;;
6997;SDS011;3539;47.982;12.238;2022-12-22T15:07:01;6.10;;;2.10;;
6997;SDS011;3539;47.982;12.238;2022-12-22T15:09:30;3.87;;;2.07;;
6997;SDS011;3539;47.982;12.238;2022-12-22T15:12:01;3.73;;;2.50;;
6997;SDS011;3539;47.982;12.238;2022-12-22T15:14:30;5.87;;;2.20;;
6997;SDS011;3539;47.982;12.238;2022-12-22T15:16:59;7.70;;;2.53;;
6997;SDS011;3539;47.982;12.238;2022-12-22T15:19:27;5.30;;;2.30;;
6997;SDS011;3539;47.982;12.238;2022-12-22T15:21:56;6.47;;;2.10;;
6997;SDS011;3539;47.982;12.238;2022-12-22T15:24:23;3.53;;;1.90;;
6997;SDS011;3539;47.982;12.238;2022-12-22T15:26:53;25.57;;;15.63;;
6997;SDS011;3539;47.982;12.238;2022-12-22T15:29:20;25.30;;;15.07;;
6997;SDS011;3539;47.982;12.238;2022-12-22T15:31:47;14.60;;;8.87;;
6997;SDS011;3539;47.982;12.238;2022-12-22T15:34:15;12.03;;;5.17;;
6997;SDS011;3539;47.982;12.238;2022-12-22T15:36:48;8.03;;;4.13;;
6997;SDS011;3539;47.982;12.238;2022-12-22T15:39:17;8.87;;;5.47;;
6997;SDS011;3539;47.982;12.238;2022-12-22T15:41:44;8.17;;;6.00;;
6997;SDS011;3539;47.982;12.238;2022-12-22T15:44:11;9.67;;;4.07;;
6997;SDS011;3539;47.982;12.238;2022-12-22T15:46:39;6.83;;;3.00;;
6997;SDS011;3539;47.982;12.238;2022-12-22T15:49:09;5.40;;;2.00;;
6997;SDS011;3539;47.982;12.238;2022-12-22T15:51:39;5.93;;;2.20;;
6997;SDS011;3539;47.982;12.238;2022-12-22T15:54:10;5.93;;;2.80;;
6997;SDS011;3539;47.982;12.238;2022-12-22T15:56:40;4.13;;;2.13;;
6997;SDS011;3539;47.982;12.238;2022-12-22T15:59:34;6.97;;;2.00;;
6997;SDS011;3539;47.982;12.238;2022-12-22T16:02:07;5.10;;;2.00;;
6997;SDS011;3539;47.982;12.238;2022-12-22T16:04:36;4.43;;;1.50;;
6997;SDS011;3539;47.982;12.238;2022-12-22T16:07:03;6.13;;;1.73;;
6997;SDS011;3539;47.982;12.238;2022-12-22T16:09:31;3.23;;;1.60;;
6997;SDS011;3539;47.982;12.238;2022-12-22T16:12:07;5.37;;;1.40;;
6997;SDS011;3539;47.982;12.238;2022-12-22T16:14:36;4.80;;;1.40;;
6997;SDS011;3539;47.982;12.238;2022-12-22T16:17:03;3.30;;;1.43;;
6997;SDS011;3539;47.982;12.238;2022-12-22T16:19:29;3.90;;;1.70;;
6997;SDS011;3539;47.982;12.238;2022-12-22T16:21:56;4.67;;;1.70;;
6997;SDS011;3539;47.982;12.238;2022-12-22T16:24:24;6.17;;;3.33;;
6997;SDS011;3539;47.982;12.238;2022-12-22T16:26:53;14.93;;;7.70;;
6997;SDS011;3539;47.982;12.238;2022-12-22T16:29:23;4.40;;;2.17;;
6997;SDS011;3539;47.982;12.238;2022-12-22T16:31:52;4.87;;;1.90;;
6997;SDS011;3539;47.982;12.238;2022-12-22T16:34:19;7.53;;;3.70;;
6997;SDS011;3539;47.982;12.238;2022-12-22T16:36:46;8.93;;;4.97;;
6997;SDS011;3539;47.982;12.238;2022-12-22T16:39:13;9.53;;;3.03;;
6997;SDS011;3539;47.982;12.238;2022-12-22T16:41:40;6.60;;;2.17;;
6997;SDS011;3539;47.982;12.238;2022-12-22T16:44:09;5.53;;;3.37;;
6997;SDS011;3539;47.982;12.238;2022-12-22T16:46:37;5.53;;;1.97;;
6997;SDS011;3539;47.982;12.238;2022-12-22T16:49:05;4.13;;;1.60;;
6997;SDS011;3539;47.982;12.238;2022-12-22T16:51:33;2.63;;;1.70;;
6997;SDS011;3539;47.982;12.238;2022-12-22T16:54:02;4.53;;;1.60;;
6997;SDS011;3539;47.982;12.238;2022-12-22T16:56:30;3.73;;;1.43;;
6997;SDS011;3539;47.982;12.238;2022-12-22T16:58:57;1.60;;;1.20;;
6997;SDS011;3539;47.982;12.238;2022-12-22T17:01:29;4.70;;;1.27;;
6997;SDS011;3539;47.982;12.238;2022-12-22T17:04:00;2.60;;;1.40;;
6997;SDS011;3539;47.982;12.238;2022-12-22T17:06:29;5.03;;;1.30;;